ヌーク の空港の天気 - METARとTAF

ヌーク空港 ( BGGH / GOH ) - グリーンランド ヌーク
飛行場実況気象(Metar)
観測時間09/22 20:50 WGST (09/22 22:50 UTC)
風向・風速東北東 4m/s
視程10km以上
天気現象
少しの雲 雲底高度 4880m
気温0℃
湿度47%
気圧999hPa
METARBGGH 222250Z 06007KT 9999 FEW160 00/M10 Q0999
過去の天気等 Google飛行場航空写真 Wunderground天気予報

過去48時間のMETAR

飛行場予報(TAF)
発表時間: 9/22 18:45 WGST (9/22 20:45 UTC)
予報対象時間: 22日19時 WGST ~ 22日23時 WGST
風向・風速北東 4m/s
視程10km以上
全天の4割程度の雲 雲底高度 4880m
TAF AMD BGGH 222045Z 2221/2301 04008KT 9999 SCT160